createdAt,value
2022-11-17T00:00:13.792Z,3.10
2022-11-17T00:02:40.283Z,3.90
2022-11-17T00:05:07.068Z,3.90
2022-11-17T00:07:33.572Z,3.90
2022-11-17T00:09:59.974Z,2.97
2022-11-17T00:12:32.475Z,3.40
2022-11-17T00:14:59.436Z,3.65
2022-11-17T00:17:25.895Z,3.90
2022-11-17T00:19:52.441Z,3.35
2022-11-17T00:22:18.892Z,3.75
2022-11-17T00:24:45.323Z,3.70
2022-11-17T00:27:12.405Z,3.35
2022-11-17T00:29:39.521Z,3.57
2022-11-17T00:32:11.285Z,3.20
2022-11-17T00:34:37.716Z,3.78
2022-11-17T00:37:05.883Z,3.22
2022-11-17T00:39:32.795Z,3.47
2022-11-17T00:41:59.174Z,3.33
2022-11-17T00:44:26.548Z,3.00
2022-11-17T00:46:52.924Z,3.45
2022-11-17T00:49:19.603Z,2.70
2022-11-17T00:51:46.042Z,3.00
2022-11-17T00:54:13.299Z,2.87
2022-11-17T00:56:40.284Z,3.85
2022-11-17T00:59:06.691Z,3.30
2022-11-17T01:01:33.184Z,3.20
2022-11-17T01:04:00.564Z,2.70
2022-11-17T01:06:26.982Z,2.90
2022-11-17T01:08:53.362Z,2.72
2022-11-17T01:11:19.816Z,2.58
2022-11-17T01:13:48.197Z,2.55
2022-11-17T01:16:17.683Z,2.15
2022-11-17T01:18:46.120Z,2.20
2022-11-17T01:21:14.037Z,2.28
2022-11-17T01:23:42.580Z,2.10
2022-11-17T01:26:14.785Z,2.00
2022-11-17T01:28:41.980Z,2.10
2022-11-17T01:31:11.859Z,1.83
2022-11-17T01:33:38.341Z,2.15
2022-11-17T01:36:12.107Z,1.80
2022-11-17T01:38:38.669Z,2.20
2022-11-17T01:41:07.444Z,2.25
2022-11-17T01:43:43.420Z,1.70
2022-11-17T01:46:25.798Z,1.77
2022-11-17T01:48:54.521Z,1.70
2022-11-17T01:51:22.527Z,1.60
2022-11-17T01:53:50.640Z,1.30
2022-11-17T01:56:30.945Z,1.43
2022-11-17T01:59:12.841Z,1.40
2022-11-17T02:01:39.365Z,1.33
2022-11-17T02:04:05.806Z,1.38
2022-11-17T02:06:36.048Z,1.20
2022-11-17T02:09:03.706Z,0.93
2022-11-17T02:11:32.433Z,1.20
2022-11-17T02:13:58.930Z,1.23
2022-11-17T02:16:25.288Z,1.17
2022-11-17T02:18:51.694Z,1.20
2022-11-17T02:21:27.259Z,1.17
2022-11-17T02:24:02.725Z,1.17
2022-11-17T02:26:51.839Z,1.10
2022-11-17T02:29:35.919Z,1.20
2022-11-17T02:32:10.659Z,1.23
2022-11-17T02:34:39.752Z,1.40
2022-11-17T02:37:31.268Z,1.55
2022-11-17T02:40:08.938Z,1.80
2022-11-17T02:42:47.166Z,1.60
2022-11-17T02:45:22.408Z,1.65
2022-11-17T02:47:53.296Z,1.67
2022-11-17T02:50:27.848Z,1.70
2022-11-17T02:52:54.935Z,1.73
2022-11-17T02:55:21.394Z,1.50
2022-11-17T02:57:47.789Z,1.70
2022-11-17T03:00:19.342Z,1.60
2022-11-17T03:02:57.659Z,1.80
2022-11-17T03:05:26.752Z,1.70
2022-11-17T03:08:02.258Z,2.00
2022-11-17T03:11:01.425Z,1.55
2022-11-17T03:14:00.929Z,1.60
2022-11-17T03:16:56.345Z,1.70
2022-11-17T03:19:32.083Z,2.45
2022-11-17T03:22:07.549Z,1.73
2022-11-17T03:24:39.653Z,1.60
2022-11-17T03:27:13.239Z,1.80
2022-11-17T03:29:44.523Z,1.70
2022-11-17T03:32:12.360Z,1.20
2022-11-17T03:34:44.467Z,1.58
2022-11-17T03:37:13.171Z,1.80
2022-11-17T03:39:47.937Z,1.70
2022-11-17T03:42:20.968Z,1.40
2022-11-17T03:44:53.419Z,1.60
2022-11-17T03:47:22.549Z,1.52
2022-11-17T03:50:06.367Z,1.70
2022-11-17T03:52:35.053Z,1.70
2022-11-17T03:55:02.680Z,1.50
2022-11-17T03:58:00.952Z,1.85
2022-11-17T04:00:27.350Z,1.67
2022-11-17T04:02:56.486Z,1.60
2022-11-17T04:05:22.885Z,2.00
2022-11-17T04:07:49.290Z,1.80
2022-11-17T04:10:20.622Z,1.73
2022-11-17T04:12:48.461Z,1.60
2022-11-17T04:15:14.942Z,1.90
2022-11-17T04:17:42.485Z,1.53
2022-11-17T04:20:09.737Z,1.77
2022-11-17T04:22:36.080Z,1.70
2022-11-17T04:25:02.481Z,2.42
2022-11-17T04:27:28.831Z,1.80
2022-11-17T04:29:55.219Z,1.90
2022-11-17T04:32:21.612Z,2.00
2022-11-17T04:34:47.958Z,1.73
2022-11-17T04:37:14.346Z,2.00
2022-11-17T04:39:40.714Z,2.00
2022-11-17T04:42:07.147Z,1.90
2022-11-17T04:44:33.531Z,1.80
2022-11-17T04:47:00.384Z,2.05
2022-11-17T04:49:26.808Z,2.10
2022-11-17T04:51:54.034Z,1.63
2022-11-17T04:54:23.339Z,2.10
2022-11-17T04:56:50.362Z,1.80
2022-11-17T04:59:17.292Z,2.00
2022-11-17T05:01:45.061Z,2.00
2022-11-17T05:04:13.818Z,2.40
2022-11-17T05:06:42.877Z,1.90
2022-11-17T05:09:15.128Z,1.80
2022-11-17T05:11:42.568Z,1.90
2022-11-17T05:14:09.376Z,1.88
2022-11-17T05:16:35.869Z,1.92
2022-11-17T05:19:02.981Z,1.77
2022-11-17T05:21:29.420Z,1.85
2022-11-17T05:23:56.377Z,1.70
2022-11-17T05:26:26.578Z,2.05
2022-11-17T05:28:55.330Z,1.92
2022-11-17T05:31:21.981Z,1.80
2022-11-17T05:33:48.431Z,1.77
2022-11-17T05:36:14.952Z,1.85
2022-11-17T05:38:41.405Z,2.22
2022-11-17T05:41:07.979Z,1.60
2022-11-17T05:43:34.819Z,1.40
2022-11-17T05:46:01.471Z,1.30
2022-11-17T05:48:28.288Z,1.30
2022-11-17T05:50:55.974Z,1.60
2022-11-17T05:53:23.955Z,1.50
2022-11-17T05:55:50.708Z,1.50
2022-11-17T05:58:28.134Z,1.30
2022-11-17T06:00:57.254Z,1.55
2022-11-17T06:03:34.293Z,1.33
2022-11-17T06:06:01.311Z,1.20
2022-11-17T06:08:28.511Z,1.70
2022-11-17T06:10:55.474Z,1.23
2022-11-17T06:13:21.884Z,1.10
2022-11-17T06:15:48.250Z,1.20
2022-11-17T06:18:19.806Z,1.10
2022-11-17T06:20:49.725Z,1.20
2022-11-17T06:23:18.870Z,1.10
2022-11-17T06:25:45.627Z,1.27
2022-11-17T06:28:14.801Z,1.20
2022-11-17T06:30:42.344Z,1.52
2022-11-17T06:33:12.759Z,1.00
2022-11-17T06:35:40.769Z,1.15
2022-11-17T06:38:07.135Z,1.40
2022-11-17T06:40:33.614Z,1.30
2022-11-17T06:43:00.049Z,1.70
2022-11-17T06:45:26.873Z,1.40
2022-11-17T06:47:53.874Z,1.30
2022-11-17T06:50:20.966Z,1.33
2022-11-17T06:52:47.350Z,1.52
2022-11-17T06:55:13.896Z,1.48
2022-11-17T06:57:40.328Z,1.40
2022-11-17T07:00:07.585Z,1.80
2022-11-17T07:02:34.080Z,1.80
2022-11-17T07:05:00.518Z,1.73
2022-11-17T07:07:26.981Z,1.70
2022-11-17T07:09:53.486Z,2.20
2022-11-17T07:12:19.926Z,1.80
2022-11-17T07:14:46.734Z,2.00
2022-11-17T07:17:13.163Z,1.92
2022-11-17T07:19:39.601Z,2.00
2022-11-17T07:22:06.041Z,1.73
2022-11-17T07:24:32.464Z,2.00
2022-11-17T07:26:58.916Z,2.10
2022-11-17T07:29:25.356Z,1.80
2022-11-17T07:31:51.847Z,1.80
2022-11-17T07:34:18.445Z,1.80
2022-11-17T07:36:44.981Z,2.30
2022-11-17T07:39:11.504Z,1.75
2022-11-17T07:41:38.140Z,1.60
2022-11-17T07:44:04.712Z,1.80
2022-11-17T07:46:31.127Z,1.73
2022-11-17T07:48:57.608Z,1.83
2022-11-17T07:51:24.240Z,1.52
2022-11-17T07:53:50.717Z,1.80
2022-11-17T07:56:17.168Z,2.00
2022-11-17T07:58:43.652Z,1.73
2022-11-17T08:01:13.285Z,1.80
2022-11-17T08:03:39.921Z,1.70
2022-11-17T08:06:07.762Z,1.80
2022-11-17T08:08:34.987Z,1.70
2022-11-17T08:11:09.980Z,1.60
2022-11-17T08:13:37.617Z,2.00
2022-11-17T08:16:04.388Z,2.20
2022-11-17T08:18:31.286Z,1.90
2022-11-17T08:21:09.748Z,1.90
2022-11-17T08:23:37.048Z,1.63
2022-11-17T08:26:04.639Z,1.80
2022-11-17T08:28:31.880Z,1.83
2022-11-17T08:31:01.364Z,2.10
2022-11-17T08:33:28.539Z,2.13
2022-11-17T08:35:59.042Z,2.00
2022-11-17T08:38:26.153Z,7.15
2022-11-17T08:40:52.688Z,2.00
2022-11-17T08:43:19.128Z,1.98
2022-11-17T08:45:45.554Z,2.10
2022-11-17T08:48:11.989Z,2.20
2022-11-17T08:50:38.693Z,1.90
2022-11-17T08:53:05.179Z,2.50
2022-11-17T08:55:33.682Z,2.42
2022-11-17T08:58:04.068Z,2.35
2022-11-17T09:00:30.572Z,2.73
2022-11-17T09:02:56.975Z,2.75
2022-11-17T09:05:23.451Z,2.30
2022-11-17T09:07:50.064Z,2.35
2022-11-17T09:10:17.208Z,2.20
2022-11-17T09:12:43.668Z,2.00
2022-11-17T09:15:10.576Z,2.10
2022-11-17T09:17:37.004Z,2.25
2022-11-17T09:20:03.619Z,2.08
2022-11-17T09:22:30.075Z,1.85
2022-11-17T09:24:56.502Z,2.10
2022-11-17T09:27:22.936Z,2.20
2022-11-17T09:29:49.357Z,2.25
2022-11-17T09:32:15.870Z,1.80
2022-11-17T09:34:42.401Z,2.08
2022-11-17T09:37:08.849Z,1.87
2022-11-17T09:39:35.283Z,2.10
2022-11-17T09:42:01.780Z,1.70
2022-11-17T09:44:31.142Z,2.20
2022-11-17T09:47:19.509Z,2.05
2022-11-17T09:49:58.088Z,1.80
2022-11-17T09:52:39.794Z,1.60
2022-11-17T09:55:09.340Z,1.98
2022-11-17T09:57:41.970Z,1.80
2022-11-17T10:00:14.963Z,2.20
2022-11-17T10:02:45.520Z,1.87
2022-11-17T10:05:20.676Z,1.73
2022-11-17T10:07:50.069Z,2.00
2022-11-17T10:10:21.702Z,1.70
2022-11-17T10:12:55.481Z,1.67
2022-11-17T10:15:28.336Z,1.30
2022-11-17T10:17:54.782Z,1.70
2022-11-17T10:20:21.290Z,1.55
2022-11-17T10:22:49.987Z,1.70
2022-11-17T10:25:40.934Z,1.45
2022-11-17T10:28:09.587Z,1.70
2022-11-17T10:30:36.346Z,1.65
2022-11-17T10:33:03.834Z,1.70
2022-11-17T10:35:32.044Z,1.80
2022-11-17T10:38:02.698Z,1.75
2022-11-17T10:40:32.068Z,1.60
2022-11-17T10:43:13.613Z,1.55
2022-11-17T10:45:51.311Z,1.90
2022-11-17T10:48:20.440Z,2.20
2022-11-17T10:51:15.868Z,2.20
2022-11-17T10:53:46.002Z,2.13
2022-11-17T10:56:16.519Z,2.00
2022-11-17T10:59:32.160Z,1.88
2022-11-17T11:02:18.585Z,1.90
2022-11-17T11:04:45.038Z,1.90
2022-11-17T11:07:20.631Z,1.77
2022-11-17T11:09:55.989Z,1.77
2022-11-17T11:12:34.308Z,1.60
2022-11-17T11:15:02.340Z,1.63
2022-11-17T11:17:29.781Z,1.70
2022-11-17T11:19:56.588Z,1.60
2022-11-17T11:22:41.507Z,1.58
2022-11-17T11:25:33.034Z,1.60
2022-11-17T11:28:31.196Z,1.60
2022-11-17T11:31:15.718Z,1.70
2022-11-17T11:33:50.147Z,1.57
2022-11-17T11:36:19.352Z,1.50
2022-11-17T11:38:55.330Z,1.52
2022-11-17T11:41:49.114Z,1.35
2022-11-17T11:44:35.594Z,1.15
2022-11-17T11:47:24.418Z,1.30
2022-11-17T11:50:02.798Z,1.20
2022-11-17T11:52:35.475Z,1.40
2022-11-17T11:55:07.200Z,1.48
2022-11-17T11:57:37.167Z,1.30
2022-11-17T12:00:14.877Z,1.50
2022-11-17T12:02:53.952Z,1.40
2022-11-17T12:05:45.737Z,1.40
2022-11-17T12:08:18.022Z,1.70
2022-11-17T12:10:51.168Z,1.60
2022-11-17T12:13:20.993Z,1.60
2022-11-17T12:15:47.735Z,1.50
2022-11-17T12:18:30.747Z,1.85
2022-11-17T12:21:05.785Z,1.55
2022-11-17T12:23:50.655Z,1.80
2022-11-17T12:26:31.506Z,1.37
2022-11-17T12:29:19.589Z,1.50
2022-11-17T12:31:57.570Z,1.60
2022-11-17T12:34:25.564Z,1.60
2022-11-17T12:37:09.967Z,1.50
2022-11-17T12:39:55.242Z,1.20
2022-11-17T12:42:21.761Z,1.50
2022-11-17T12:45:01.264Z,1.40
2022-11-17T12:47:41.924Z,1.50
2022-11-17T12:50:08.336Z,1.50
2022-11-17T12:52:37.598Z,1.40
2022-11-17T12:55:14.030Z,1.40
2022-11-17T12:57:44.109Z,1.58
2022-11-17T13:00:19.772Z,1.63
2022-11-17T13:03:11.887Z,1.70
2022-11-17T13:05:38.332Z,1.50
2022-11-17T13:08:13.871Z,1.50
2022-11-17T13:10:40.987Z,1.42
2022-11-17T13:13:20.752Z,1.50
2022-11-17T13:15:56.709Z,1.33
2022-11-17T13:18:27.861Z,1.90
2022-11-17T13:20:54.382Z,1.42
2022-11-17T13:23:26.895Z,1.40
2022-11-17T13:26:15.823Z,1.20
2022-11-17T13:28:43.332Z,1.30
2022-11-17T13:31:18.087Z,1.40
2022-11-17T13:33:55.432Z,1.20
2022-11-17T13:36:21.915Z,1.30
2022-11-17T13:38:53.419Z,1.30
2022-11-17T13:41:22.196Z,1.20
2022-11-17T13:43:50.920Z,1.20
2022-11-17T13:46:17.745Z,1.10
2022-11-17T13:48:46.127Z,1.40
2022-11-17T13:51:27.511Z,1.20
2022-11-17T13:53:55.808Z,1.45
2022-11-17T13:56:25.135Z,1.27
2022-11-17T13:58:52.332Z,1.70
2022-11-17T14:01:25.208Z,1.50
2022-11-17T14:03:52.275Z,1.30
2022-11-17T14:06:18.863Z,1.45
2022-11-17T14:09:04.063Z,1.20
2022-11-17T14:11:30.743Z,1.58
2022-11-17T14:13:59.256Z,1.20
2022-11-17T14:16:28.941Z,1.40
2022-11-17T14:19:00.860Z,1.20
2022-11-17T14:21:27.981Z,1.40
2022-11-17T14:24:03.049Z,1.50
2022-11-17T14:26:29.575Z,1.33
2022-11-17T14:28:56.442Z,1.40
2022-11-17T14:31:22.867Z,1.40
2022-11-17T14:33:49.397Z,1.50
2022-11-17T14:36:17.323Z,1.50
2022-11-17T14:38:45.105Z,1.30
2022-11-17T14:41:11.535Z,1.40
2022-11-17T14:43:37.945Z,2.03
2022-11-17T14:46:04.429Z,1.50
2022-11-17T14:48:30.856Z,1.50
2022-11-17T14:50:59.141Z,1.52
2022-11-17T14:53:26.041Z,1.65
2022-11-17T14:55:53.105Z,1.40
2022-11-17T14:58:19.585Z,1.60
2022-11-17T15:00:46.037Z,1.40
2022-11-17T15:03:12.564Z,1.63
2022-11-17T15:05:45.998Z,1.60
2022-11-17T15:08:13.201Z,1.45
2022-11-17T15:10:44.088Z,1.30
2022-11-17T15:13:10.645Z,1.30
2022-11-17T15:15:37.133Z,1.50
2022-11-17T15:18:03.638Z,1.50
2022-11-17T15:20:30.075Z,1.73
2022-11-17T15:23:01.862Z,1.40
2022-11-17T15:25:29.565Z,1.50
2022-11-17T15:27:56.444Z,1.60
2022-11-17T15:30:22.999Z,1.70
2022-11-17T15:32:49.404Z,1.60
2022-11-17T15:35:16.095Z,1.80
2022-11-17T15:37:42.533Z,1.77
2022-11-17T15:40:09.655Z,1.65
2022-11-17T15:42:36.103Z,1.40
2022-11-17T15:45:02.563Z,1.92
2022-11-17T15:47:28.958Z,1.90
2022-11-17T15:49:55.397Z,1.60
2022-11-17T15:52:41.518Z,1.92
2022-11-17T15:55:08.449Z,1.42
2022-11-17T15:57:34.893Z,1.60
2022-11-17T16:00:01.346Z,2.10
2022-11-17T16:02:27.765Z,1.50
2022-11-17T16:04:54.199Z,2.78
2022-11-17T16:07:20.738Z,3.13
2022-11-17T16:09:49.206Z,1.85
2022-11-17T16:12:16.955Z,1.60
2022-11-17T16:14:43.455Z,2.20
2022-11-17T16:17:09.897Z,1.63
2022-11-17T16:19:36.338Z,1.40
2022-11-17T16:22:02.818Z,1.50
2022-11-17T16:24:29.256Z,1.57
2022-11-17T16:26:55.667Z,1.58
2022-11-17T16:29:22.094Z,1.70
2022-11-17T16:31:48.540Z,1.70
2022-11-17T16:34:15.969Z,1.70
2022-11-17T16:36:43.524Z,1.87
2022-11-17T16:39:13.162Z,1.80
2022-11-17T16:41:41.904Z,1.60
2022-11-17T16:44:10.601Z,1.70
2022-11-17T16:46:37.668Z,1.83
2022-11-17T16:49:09.712Z,1.60
2022-11-17T16:51:36.159Z,1.88
2022-11-17T16:54:05.387Z,1.75
2022-11-17T16:56:32.738Z,1.80
2022-11-17T16:58:59.532Z,1.75
2022-11-17T17:01:28.343Z,1.77
2022-11-17T17:03:56.369Z,1.70
2022-11-17T17:06:23.005Z,1.70
2022-11-17T17:08:53.764Z,2.13
2022-11-17T17:11:20.200Z,2.13
2022-11-17T17:13:46.691Z,1.70
2022-11-17T17:16:16.380Z,1.73
2022-11-17T17:18:43.084Z,1.80
2022-11-17T17:21:16.068Z,1.70
2022-11-17T17:23:42.761Z,1.42
2022-11-17T17:26:11.806Z,1.50
2022-11-17T17:28:38.570Z,1.50
2022-11-17T17:31:05.093Z,1.90
2022-11-17T17:33:32.630Z,1.50
2022-11-17T17:36:03.593Z,1.80
2022-11-17T17:38:30.468Z,1.80
2022-11-17T17:40:57.048Z,1.67
2022-11-17T17:43:23.471Z,1.88
2022-11-17T17:45:49.926Z,1.60
2022-11-17T17:48:16.383Z,2.15
2022-11-17T17:50:42.845Z,1.93
2022-11-17T17:53:09.324Z,1.70
2022-11-17T17:55:35.802Z,1.80
2022-11-17T17:58:02.232Z,1.52
2022-11-17T18:00:28.670Z,1.80
2022-11-17T18:02:55.203Z,1.70
2022-11-17T18:05:21.658Z,1.95
2022-11-17T18:07:48.842Z,2.03
2022-11-17T18:10:15.818Z,1.88
2022-11-17T18:12:42.239Z,2.53
2022-11-17T18:15:09.301Z,3.20
2022-11-17T18:17:35.916Z,2.20
2022-11-17T18:20:02.417Z,2.58
2022-11-17T18:22:28.825Z,2.50
2022-11-17T18:24:58.324Z,2.00
2022-11-17T18:27:24.964Z,2.20
2022-11-17T18:29:51.434Z,1.80
2022-11-17T18:32:17.849Z,1.90
2022-11-17T18:34:44.253Z,1.83
2022-11-17T18:37:10.669Z,2.53
2022-11-17T18:39:37.092Z,2.03
2022-11-17T18:42:03.814Z,1.70
2022-11-17T18:44:30.235Z,1.88
2022-11-17T18:47:02.339Z,1.80
2022-11-17T18:49:30.592Z,1.80
2022-11-17T18:51:57.040Z,1.97
2022-11-17T18:54:23.491Z,1.70
2022-11-17T18:56:49.907Z,2.00
2022-11-17T18:59:16.776Z,3.10
2022-11-17T19:01:43.792Z,2.50
2022-11-17T19:04:12.980Z,3.13
2022-11-17T19:06:39.531Z,2.22
2022-11-17T19:09:06.074Z,2.40
2022-11-17T19:11:32.611Z,2.13
2022-11-17T19:14:01.291Z,3.67
2022-11-17T19:16:28.879Z,2.30
2022-11-17T19:18:56.552Z,2.00
2022-11-17T19:21:25.723Z,2.20
2022-11-17T19:23:53.889Z,2.00
2022-11-17T19:26:28.729Z,2.03
2022-11-17T19:28:56.601Z,1.80
2022-11-17T19:31:23.229Z,1.75
2022-11-17T19:33:50.391Z,1.80
2022-11-17T19:36:25.097Z,1.98
2022-11-17T19:38:53.124Z,2.20
2022-11-17T19:41:31.044Z,2.30
2022-11-17T19:44:03.201Z,2.15
2022-11-17T19:46:30.065Z,2.30
2022-11-17T19:48:57.320Z,2.40
2022-11-17T19:51:26.577Z,2.20
2022-11-17T19:53:55.470Z,2.27
2022-11-17T19:56:23.738Z,2.42
2022-11-17T19:58:50.624Z,1.90
2022-11-17T20:01:20.041Z,1.90
2022-11-17T20:03:47.237Z,2.20
2022-11-17T20:06:16.245Z,2.10
2022-11-17T20:08:43.330Z,2.50
2022-11-17T20:11:12.706Z,2.80
2022-11-17T20:13:40.068Z,2.22
2022-11-17T20:16:11.914Z,2.60
2022-11-17T20:18:39.357Z,1.90
2022-11-17T20:21:06.696Z,2.47
2022-11-17T20:23:34.505Z,2.42
2022-11-17T20:26:10.935Z,2.20
2022-11-17T20:28:38.425Z,2.35
2022-11-17T20:31:09.958Z,2.40
2022-11-17T20:33:38.003Z,4.45
2022-11-17T20:36:05.564Z,2.58
2022-11-17T20:38:32.008Z,3.50
2022-11-17T20:40:59.544Z,2.28
2022-11-17T20:43:27.068Z,2.17
2022-11-17T20:45:54.232Z,2.30
2022-11-17T20:48:21.367Z,2.47
2022-11-17T20:51:02.891Z,3.17
2022-11-17T20:53:29.528Z,2.33
2022-11-17T20:55:57.291Z,2.50
2022-11-17T20:58:25.166Z,2.70
2022-11-17T21:00:52.561Z,2.45
2022-11-17T21:03:19.523Z,2.50
2022-11-17T21:05:59.740Z,2.58
2022-11-17T21:08:29.083Z,2.67
2022-11-17T21:10:57.276Z,2.60
2022-11-17T21:13:24.401Z,2.42
2022-11-17T21:16:06.177Z,2.53
2022-11-17T21:18:32.695Z,2.65
2022-11-17T21:20:59.248Z,2.80
2022-11-17T21:23:26.705Z,2.60
2022-11-17T21:25:53.349Z,2.58
2022-11-17T21:28:19.771Z,2.58
2022-11-17T21:30:46.310Z,3.15
2022-11-17T21:33:12.754Z,2.70
2022-11-17T21:35:39.225Z,2.90
2022-11-17T21:38:05.607Z,2.92
2022-11-17T21:40:32.086Z,3.08
2022-11-17T21:42:59.265Z,3.60
2022-11-17T21:45:25.740Z,3.03
2022-11-17T21:47:58.040Z,3.40
2022-11-17T21:50:25.779Z,3.13
2022-11-17T21:52:52.179Z,3.20
2022-11-17T21:55:18.586Z,3.40
2022-11-17T21:57:45.005Z,3.47
2022-11-17T22:00:11.725Z,3.17
2022-11-17T22:02:38.173Z,3.45
2022-11-17T22:05:04.914Z,2.90
2022-11-17T22:07:31.380Z,3.40
2022-11-17T22:09:57.977Z,3.13
2022-11-17T22:12:24.368Z,2.92
2022-11-17T22:14:50.893Z,3.05
2022-11-17T22:17:17.357Z,3.00
2022-11-17T22:19:43.852Z,2.80
2022-11-17T22:22:10.287Z,2.70
2022-11-17T22:24:39.554Z,2.80
2022-11-17T22:27:06.274Z,2.63
2022-11-17T22:29:33.249Z,2.42
2022-11-17T22:31:59.730Z,2.28
2022-11-17T22:34:26.180Z,2.50
2022-11-17T22:36:52.604Z,2.60
2022-11-17T22:39:19.523Z,2.50
2022-11-17T22:41:46.215Z,2.67
2022-11-17T22:44:14.652Z,3.00
2022-11-17T22:46:41.737Z,2.83
2022-11-17T22:49:08.255Z,2.70
2022-11-17T22:51:34.784Z,2.60
2022-11-17T22:54:01.287Z,2.60
2022-11-17T22:56:27.726Z,2.80
2022-11-17T22:58:59.324Z,2.93
2022-11-17T23:01:26.251Z,2.67
2022-11-17T23:03:52.820Z,3.10
2022-11-17T23:06:19.360Z,2.85
2022-11-17T23:08:48.144Z,3.10
2022-11-17T23:11:36.019Z,3.07
2022-11-17T23:14:00.978Z,3.20
2022-11-17T23:16:27.467Z,3.08
2022-11-17T23:18:55.692Z,3.30
2022-11-17T23:21:22.982Z,3.00
2022-11-17T23:23:49.526Z,3.00
2022-11-17T23:26:16.262Z,3.10
2022-11-17T23:28:43.651Z,3.00
2022-11-17T23:31:13.346Z,3.60
2022-11-17T23:33:42.546Z,2.92
2022-11-17T23:36:13.619Z,3.07
2022-11-17T23:38:40.253Z,3.15
2022-11-17T23:41:08.720Z,3.63
2022-11-17T23:43:35.213Z,3.20
2022-11-17T23:46:07.332Z,3.15
2022-11-17T23:48:33.791Z,3.07
2022-11-17T23:51:04.810Z,3.20
2022-11-17T23:53:31.344Z,3.30
2022-11-17T23:55:58.144Z,2.92
2022-11-17T23:58:24.635Z,3.08
